Time;durP1;ratioP1;P1;durP2;ratioP2;P2;SDS_P1;SDS_P2;PMS_P1;PMS_P2;Temp;Humidity;BMP_temperature;BMP_pressure;BME280_temperature;BME280_humidity;BME280_pressure;Samples;Min_cycle;Max_cycle;Signal;HPM_P1;HPM_P2
2021/12/15 00:01:17;;;;;;;1.17;0.70;;;2.90;99.90;;;;;;5042882;28;20278;-93
2021/12/15 00:03:51;;;;;;;3.33;1.53;;;2.90;99.90;;;;;;5042815;28;20230;-94
2021/12/15 00:06:23;;;;;;;0.77;0.57;;;2.90;99.90;;;;;;5043418;28;20213;-94
2021/12/15 00:09:00;;;;;;;1.40;0.60;;;2.90;99.90;;;;;;5042403;28;20228;-95
2021/12/15 00:11:36;;;;;;;1.77;0.53;;;2.90;99.90;;;;;;5044766;28;20217;-94
2021/12/15 00:14:08;;;;;;;1.20;0.60;;;2.90;99.90;;;;;;5048060;28;20220;-94
2021/12/15 00:16:40;;;;;;;2.30;0.97;;;3.00;99.90;;;;;;5047349;28;20197;-93
2021/12/15 00:19:11;;;;;;;2.30;1.50;;;2.90;99.90;;;;;;5102057;22;20207;-91
2021/12/15 00:21:42;;;;;;;1.70;1.10;;;3.00;99.90;;;;;;5038515;28;20230;-95
2021/12/15 00:24:16;;;;;;;2.17;0.93;;;3.00;99.90;;;;;;5031860;28;20240;-93
2021/12/15 00:26:50;;;;;;;2.20;0.80;;;2.80;99.90;;;;;;5035361;28;20212;-96
2021/12/15 00:29:21;;;;;;;2.57;0.70;;;2.70;99.90;;;;;;5035069;28;20248;-96
2021/12/15 00:31:54;;;;;;;1.70;0.97;;;2.70;99.90;;;;;;5030664;28;20271;-94
2021/12/15 00:34:26;;;;;;;1.47;0.70;;;2.70;99.90;;;;;;5028269;28;20206;-95
2021/12/15 00:36:59;;;;;;;3.63;1.00;;;2.80;99.90;;;;;;5021858;28;20233;-95
2021/12/15 00:39:33;;;;;;;3.20;1.00;;;2.80;99.90;;;;;;5017933;28;20210;-95
2021/12/15 00:42:07;;;;;;;1.10;0.80;;;2.70;99.90;;;;;;5003079;28;20249;-96
2021/12/15 00:44:48;;;;;;;0.87;0.73;;;2.70;99.90;;;;;;5008308;28;20253;-95
2021/12/15 00:47:19;;;;;;;1.93;0.57;;;2.70;99.90;;;;;;5003575;28;20252;-96
2021/12/15 00:49:51;;;;;;;0.80;0.60;;;2.80;99.90;;;;;;5004562;28;20273;-96
2021/12/15 00:52:22;;;;;;;2.27;1.07;;;2.70;99.90;;;;;;5003855;28;20253;-95
2021/12/15 00:54:56;;;;;;;1.10;0.80;;;2.70;99.90;;;;;;5003099;28;20206;-96
2021/12/15 00:57:28;;;;;;;1.37;0.80;;;2.70;99.90;;;;;;5009169;28;20208;-96
2021/12/15 00:59:59;;;;;;;1.63;1.00;;;2.70;99.90;;;;;;5023019;28;20894;-96
2021/12/15 01:02:30;;;;;;;1.57;0.90;;;2.70;99.90;;;;;;5023704;28;20241;-96
2021/12/15 01:05:03;;;;;;;0.63;0.60;;;2.70;99.90;;;;;;5025663;28;20239;-95
2021/12/15 01:07:34;;;;;;;3.13;1.00;;;2.60;99.90;;;;;;5024176;28;20229;-96
2021/12/15 01:10:11;;;;;;;1.10;0.80;;;2.70;99.90;;;;;;5022100;28;20221;-94
2021/12/15 01:14:27;;;;;;;1.00;0.90;;;2.60;99.90;;;;;;5023543;28;20281;-96
2021/12/15 01:21:29;;;;;;;1.23;1.00;;;2.70;99.90;;;;;;4980232;28;20392;-95
2021/12/15 01:24:01;;;;;;;1.40;1.30;;;2.70;99.90;;;;;;4979270;28;20239;-93
2021/12/15 01:26:34;;;;;;;4.50;3.37;;;2.70;99.90;;;;;;4990399;28;20255;-94
2021/12/15 01:29:06;;;;;;;1.23;1.00;;;2.60;99.90;;;;;;5022569;28;20293;-95
2021/12/15 01:31:38;;;;;;;2.00;0.90;;;2.70;99.90;;;;;;5021814;28;20209;-95
2021/12/15 01:34:10;;;;;;;1.33;0.80;;;2.70;99.90;;;;;;5021421;28;20240;-96
2021/12/15 01:36:41;;;;;;;1.50;0.70;;;2.70;99.90;;;;;;5020568;28;20244;-96
2021/12/15 01:39:12;;;;;;;2.13;0.73;;;2.70;99.90;;;;;;5024911;28;20232;-94
2021/12/15 01:41:47;;;;;;;1.87;1.10;;;2.70;99.90;;;;;;5020898;28;20240;-95
2021/12/15 01:47:08;;;;;;;1.13;1.03;;;2.70;99.90;;;;;;5020135;28;20576;-95
2021/12/15 01:49:41;;;;;;;1.60;1.10;;;2.70;99.90;;;;;;5026717;28;20216;-92
2021/12/15 01:52:16;;;;;;;1.47;0.87;;;2.70;99.90;;;;;;5023931;28;20209;-95
2021/12/15 01:54:50;;;;;;;1.17;1.03;;;2.70;99.90;;;;;;5024732;28;20201;-95
2021/12/15 01:57:25;;;;;;;1.07;0.90;;;2.70;99.90;;;;;;5023095;28;20212;-93
2021/12/15 02:00:01;;;;;;;3.93;2.87;;;2.60;99.90;;;;;;5025521;28;20271;-95
2021/12/15 02:02:33;;;;;;;1.00;0.90;;;2.60;99.90;;;;;;5026810;28;20233;-96
2021/12/15 02:05:06;;;;;;;1.83;1.03;;;2.60;99.90;;;;;;5023020;28;20214;-95
2021/12/15 02:07:37;;;;;;;2.27;0.90;;;2.60;99.90;;;;;;5023929;28;20213;-96
2021/12/15 02:10:10;;;;;;;1.80;1.30;;;2.70;99.90;;;;;;5022338;28;20673;-96
2021/12/15 02:13:03;;;;;;;3.17;1.33;;;2.70;99.90;;;;;;5022866;28;20206;-93
2021/12/15 02:15:38;;;;;;;1.23;1.07;;;2.60;99.90;;;;;;5022628;28;20251;-94
2021/12/15 02:18:18;;;;;;;1.23;0.90;;;2.60;99.90;;;;;;5020829;28;20209;-95
2021/12/15 02:20:56;;;;;;;6.00;5.47;;;2.60;99.90;;;;;;5018901;28;20217;-95
2021/12/15 02:23:36;;;;;;;34.00;8.63;;;2.50;99.90;;;;;;5022472;28;20229;-94
2021/12/15 02:26:12;;;;;;;1.43;1.10;;;2.50;99.90;;;;;;5026631;28;20267;-92
2021/12/15 02:28:49;;;;;;;7.90;2.60;;;2.50;99.90;;;;;;5008693;28;20236;-94
2021/12/15 02:31:36;;;;;;;2.23;1.20;;;2.50;99.90;;;;;;5006864;28;20202;-92
2021/12/15 02:34:54;;;;;;;3.93;1.97;;;2.40;99.90;;;;;;5004533;28;20210;-92
2021/12/15 02:37:18;;;;;;;2.47;1.60;;;2.40;99.90;;;;;;5016340;28;20202;-94
2021/12/15 02:39:55;;;;;;;3.53;2.27;;;2.50;99.90;;;;;;5016409;28;20280;-95
2021/12/15 02:42:31;;;;;;;3.30;1.70;;;2.40;99.90;;;;;;5012648;28;20233;-94
2021/12/15 02:45:03;;;;;;;6.93;6.33;;;2.40;99.90;;;;;;5011377;28;20288;-94
2021/12/15 02:47:37;;;;;;;3.03;1.33;;;2.40;99.90;;;;;;5007237;28;20210;-94
2021/12/15 02:50:11;;;;;;;3.07;1.80;;;2.50;99.90;;;;;;5004806;28;20210;-94
2021/12/15 02:52:46;;;;;;;2.33;1.60;;;2.40;99.90;;;;;;5003916;28;20222;-95
2021/12/15 02:55:19;;;;;;;2.47;1.33;;;2.50;99.90;;;;;;5002930;28;20333;-94
2021/12/15 02:57:52;;;;;;;1.67;1.50;;;2.50;99.90;;;;;;5005833;28;20237;-95
2021/12/15 03:00:26;;;;;;;4.20;2.80;;;2.50;99.90;;;;;;5023069;28;20209;-94
2021/12/15 03:06:05;;;;;;;4.33;1.63;;;2.40;99.90;;;;;;5001683;28;20189;-95
2021/12/15 03:08:53;;;;;;;2.53;2.10;;;2.50;99.90;;;;;;5032682;28;20201;-93
2021/12/15 03:17:18;;;;;;;2.90;1.60;;;2.50;99.90;;;;;;4988177;28;20203;-95
2021/12/15 03:19:49;;;;;;;5.47;1.77;;;2.50;99.90;;;;;;4987770;28;20679;-96
2021/12/15 03:22:20;;;;;;;2.80;1.67;;;2.50;99.90;;;;;;5001632;28;20216;-95
2021/12/15 03:24:54;;;;;;;3.60;1.83;;;2.60;99.90;;;;;;5020922;28;20300;-93
2021/12/15 03:33:15;;;;;;;3.80;2.13;;;2.60;99.90;;;;;;5020589;28;20232;-95
2021/12/15 03:36:02;;;;;;;2.80;1.80;;;2.60;99.90;;;;;;5036502;28;20201;-95
2021/12/15 03:38:35;;;;;;;3.57;2.63;;;2.70;99.90;;;;;;5032022;28;20206;-93
2021/12/15 03:41:11;;;;;;;2.83;1.53;;;2.70;99.90;;;;;;5026717;28;20220;-94
2021/12/15 03:43:42;;;;;;;2.43;1.30;;;2.70;99.90;;;;;;5026965;28;20271;-94
2021/12/15 03:46:17;;;;;;;2.00;1.40;;;2.70;99.90;;;;;;5026816;28;20601;-94
2021/12/15 03:48:49;;;;;;;2.57;1.60;;;2.70;99.90;;;;;;5026356;28;20228;-95
2021/12/15 03:51:21;;;;;;;2.07;1.30;;;2.70;99.90;;;;;;5030579;28;20221;-96
2021/12/15 03:53:53;;;;;;;3.43;1.30;;;2.70;99.90;;;;;;5030268;28;20276;-95
2021/12/15 03:56:26;;;;;;;3.27;1.30;;;2.70;99.90;;;;;;5027817;28;20210;-94
2021/12/15 03:58:58;;;;;;;4.77;1.37;;;2.70;99.90;;;;;;5030701;28;20210;-95
2021/12/15 04:01:29;;;;;;;2.40;1.50;;;2.70;99.90;;;;;;5028988;28;20241;-96
2021/12/15 04:04:02;;;;;;;2.83;1.63;;;2.80;99.90;;;;;;5027873;28;20237;-95
2021/12/15 04:06:38;;;;;;;1.73;1.60;;;2.80;99.90;;;;;;5029363;28;20236;-96
2021/12/15 04:09:11;;;;;;;2.33;1.40;;;2.80;99.90;;;;;;5166056;22;20220;-96
2021/12/15 04:11:46;;;;;;;2.37;1.40;;;2.80;99.90;;;;;;5078427;28;20203;-94
2021/12/15 04:14:22;;;;;;;2.33;1.20;;;2.90;99.90;;;;;;5078294;28;20204;-96
2021/12/15 04:17:03;;;;;;;2.43;1.37;;;2.90;99.90;;;;;;5070031;28;20208;-95
2021/12/15 04:19:37;;;;;;;2.53;1.63;;;2.90;99.90;;;;;;5067926;28;20211;-96
2021/12/15 04:22:08;;;;;;;1.93;1.13;;;2.90;99.90;;;;;;5075153;28;20199;-95
2021/12/15 04:24:40;;;;;;;2.07;1.20;;;2.90;99.90;;;;;;5083867;28;20255;-95
2021/12/15 04:27:16;;;;;;;1.40;1.00;;;2.90;99.90;;;;;;5083137;28;20199;-94
2021/12/15 04:29:47;;;;;;;2.20;1.43;;;3.00;99.90;;;;;;5083506;28;20242;-95
2021/12/15 04:32:23;;;;;;;2.10;1.07;;;2.90;99.90;;;;;;5067209;28;20212;-95
2021/12/15 04:34:55;;;;;;;4.70;1.23;;;3.00;99.90;;;;;;5062103;28;20261;-94
2021/12/15 04:37:26;;;;;;;1.10;1.00;;;3.00;99.90;;;;;;5062352;28;20728;-94
2021/12/15 04:39:59;;;;;;;1.33;1.00;;;3.00;99.90;;;;;;5062519;28;20212;-96
2021/12/15 04:42:32;;;;;;;2.93;1.57;;;3.00;99.90;;;;;;5061609;28;20257;-96
2021/12/15 04:45:04;;;;;;;3.03;1.07;;;3.00;99.90;;;;;;5060496;28;20247;-94
2021/12/15 04:47:35;;;;;;;3.07;1.10;;;3.00;99.90;;;;;;5060712;28;20251;-94
2021/12/15 04:50:08;;;;;;;1.47;1.10;;;3.10;99.90;;;;;;5070004;28;20203;-95
2021/12/15 04:52:39;;;;;;;1.83;1.40;;;3.10;99.90;;;;;;5077877;28;20204;-95
2021/12/15 04:55:11;;;;;;;3.57;1.73;;;3.00;99.90;;;;;;5078124;28;20250;-93
2021/12/15 04:57:44;;;;;;;2.43;1.03;;;3.00;99.90;;;;;;5066125;28;20211;-95
2021/12/15 05:00:20;;;;;;;2.20;1.30;;;3.00;99.90;;;;;;5067294;28;20215;-96
2021/12/15 05:02:52;;;;;;;1.43;1.10;;;3.00;99.90;;;;;;5064650;28;20203;-94
2021/12/15 05:05:25;;;;;;;2.07;1.33;;;3.00;99.90;;;;;;5061902;28;20549;-94
2021/12/15 05:07:57;;;;;;;2.10;1.30;;;3.00;99.90;;;;;;5062768;28;20208;-95
2021/12/15 05:10:30;;;;;;;1.40;1.10;;;3.00;99.90;;;;;;5063161;28;20681;-94
2021/12/15 05:13:03;;;;;;;2.17;1.20;;;3.00;99.90;;;;;;5061538;28;20232;-95
2021/12/15 05:15:38;;;;;;;1.83;1.17;;;3.00;99.90;;;;;;5062267;28;20228;-95
2021/12/15 05:18:11;;;;;;;2.20;1.93;;;3.00;99.90;;;;;;5062230;28;20272;-94
2021/12/15 05:20:47;;;;;;;1.20;0.97;;;3.10;99.90;;;;;;5063286;28;20272;-95
2021/12/15 05:23:20;;;;;;;1.80;0.90;;;3.10;99.90;;;;;;5060470;28;20227;-96
2021/12/15 05:25:51;;;;;;;2.43;1.20;;;3.10;99.90;;;;;;5059215;28;20274;-95
2021/12/15 05:28:25;;;;;;;1.77;1.17;;;3.10;99.90;;;;;;5059356;28;20247;-94
2021/12/15 05:30:58;;;;;;;1.43;1.10;;;3.10;99.90;;;;;;5060722;28;20235;-96
2021/12/15 05:33:29;;;;;;;2.63;1.20;;;3.10;99.90;;;;;;5060261;28;20300;-95
2021/12/15 05:36:00;;;;;;;1.30;1.10;;;3.10;99.90;;;;;;5062734;28;20204;-95
2021/12/15 05:38:31;;;;;;;1.57;1.00;;;3.10;99.90;;;;;;5062971;28;20208;-94
2021/12/15 05:41:03;;;;;;;1.17;0.60;;;3.10;99.90;;;;;;5061376;28;20239;-95
2021/12/15 05:43:36;;;;;;;0.83;0.70;;;3.20;99.90;;;;;;5060702;28;20236;-95
2021/12/15 05:46:08;;;;;;;4.37;0.90;;;3.20;99.90;;;;;;5060677;28;20230;-96
2021/12/15 05:48:39;;;;;;;1.70;1.23;;;3.20;99.90;;;;;;5061425;28;20299;-95
2021/12/15 05:51:10;;;;;;;1.20;0.70;;;3.20;99.90;;;;;;5065090;28;20273;-95
2021/12/15 05:53:41;;;;;;;1.60;0.90;;;3.20;99.90;;;;;;5062300;28;20204;-94
2021/12/15 05:56:13;;;;;;;1.57;1.10;;;3.20;99.90;;;;;;5059191;28;20208;-94
2021/12/15 05:58:47;;;;;;;1.97;0.90;;;3.20;99.90;;;;;;5060975;28;20310;-94
2021/12/15 06:01:19;;;;;;;1.07;0.80;;;3.20;99.90;;;;;;5059785;28;20613;-93
2021/12/15 06:03:52;;;;;;;1.50;1.00;;;3.20;99.90;;;;;;5061113;28;20565;-95
2021/12/15 06:06:23;;;;;;;0.70;0.70;;;3.20;99.90;;;;;;5060791;28;20239;-95
2021/12/15 06:08:54;;;;;;;1.63;1.10;;;3.20;99.90;;;;;;5062979;28;20242;-96
2021/12/15 06:11:28;;;;;;;2.27;0.90;;;3.20;99.90;;;;;;5061224;28;20266;-96
2021/12/15 06:14:01;;;;;;;1.57;0.80;;;3.20;99.90;;;;;;5062477;28;20204;-96
2021/12/15 06:16:33;;;;;;;1.10;0.80;;;3.30;99.90;;;;;;5061719;28;20265;-95
2021/12/15 06:19:06;;;;;;;1.80;0.90;;;3.30;99.90;;;;;;5062028;28;20251;-95
2021/12/15 06:21:37;;;;;;;1.90;1.07;;;3.20;99.90;;;;;;5063561;28;20211;-95
2021/12/15 06:24:08;;;;;;;0.93;0.70;;;3.20;99.90;;;;;;5061181;28;20212;-95
2021/12/15 06:26:39;;;;;;;2.13;1.27;;;3.10;99.90;;;;;;5040360;28;20213;-96
2021/12/15 06:29:13;;;;;;;1.83;1.30;;;3.20;99.90;;;;;;5041467;28;20220;-95
2021/12/15 06:31:44;;;;;;;1.23;0.90;;;3.10;99.90;;;;;;5041895;28;20276;-96
2021/12/15 06:34:16;;;;;;;1.40;1.03;;;3.10;99.90;;;;;;5040736;28;20231;-96
2021/12/15 06:36:48;;;;;;;1.60;1.07;;;3.10;99.90;;;;;;5040873;28;20228;-96
2021/12/15 06:39:20;;;;;;;2.43;1.50;;;3.10;99.90;;;;;;5042952;28;20232;-96
2021/12/15 06:41:51;;;;;;;1.37;1.10;;;3.10;99.90;;;;;;5042544;28;20220;-95
2021/12/15 06:44:25;;;;;;;2.73;2.23;;;3.10;99.90;;;;;;5042185;28;20654;-95
2021/12/15 06:58:15;;;;;;;1.97;1.60;;;3.10;99.90;;;;;;5056629;28;20197;-94
2021/12/15 07:00:53;;;;;;;1.63;1.50;;;3.10;99.90;;;;;;5057011;28;20197;-94
2021/12/15 07:03:25;;;;;;;4.33;1.57;;;3.10;99.90;;;;;;5056837;28;20196;-94
2021/12/15 07:05:57;;;;;;;1.70;1.30;;;3.20;99.90;;;;;;5054613;28;20235;-96
2021/12/15 07:08:29;;;;;;;1.40;1.20;;;3.20;99.90;;;;;;5048943;28;20236;-96
2021/12/15 07:11:02;;;;;;;2.63;1.57;;;3.20;99.90;;;;;;5056740;28;20197;-96
2021/12/15 07:13:35;;;;;;;1.37;1.10;;;3.20;99.90;;;;;;5058330;28;20215;-95
2021/12/15 07:16:10;;;;;;;1.47;1.20;;;3.10;99.90;;;;;;5056242;28;20212;-94
2021/12/15 07:18:49;;;;;;;2.40;1.50;;;3.10;99.90;;;;;;5052710;28;20204;-95
2021/12/15 07:21:23;;;;;;;1.87;1.30;;;3.10;99.90;;;;;;5048462;28;20212;-95
2021/12/15 07:23:56;;;;;;;2.40;1.50;;;3.10;99.90;;;;;;5051026;28;20272;-95
2021/12/15 07:26:27;;;;;;;2.63;1.40;;;3.10;99.90;;;;;;5048160;28;20228;-94
2021/12/15 07:28:58;;;;;;;1.80;1.47;;;3.10;99.90;;;;;;5046971;28;20205;-94
2021/12/15 07:31:31;;;;;;;3.33;1.53;;;3.20;99.90;;;;;;5055073;28;20263;-95
2021/12/15 07:34:03;;;;;;;2.47;1.37;;;3.20;99.90;;;;;;5065784;28;20262;-94
2021/12/15 07:36:34;;;;;;;2.73;1.63;;;3.20;99.90;;;;;;5064084;28;20268;-94
2021/12/15 07:39:08;;;;;;;2.30;1.50;;;3.20;99.90;;;;;;5064730;28;20238;-94
2021/12/15 07:41:48;;;;;;;1.93;1.47;;;3.20;99.90;;;;;;5064900;28;20216;-94
2021/12/15 07:44:21;;;;;;;2.77;1.60;;;3.10;99.90;;;;;;5067465;28;20213;-94
2021/12/15 07:46:55;;;;;;;2.67;1.60;;;3.20;99.90;;;;;;5067995;28;20236;-94
2021/12/15 07:49:29;;;;;;;1.50;1.40;;;3.20;99.90;;;;;;5068696;28;20256;-93
2021/12/15 07:52:04;;;;;;;1.67;1.27;;;3.30;99.90;;;;;;5065067;28;20258;-93
2021/12/15 07:54:37;;;;;;;2.20;1.30;;;3.30;99.90;;;;;;5062482;28;20215;-94
2021/12/15 07:57:12;;;;;;;1.50;1.20;;;3.30;99.90;;;;;;5045232;28;20211;-93
2021/12/15 07:59:44;;;;;;;2.43;1.50;;;3.30;99.90;;;;;;5062638;28;20211;-94
2021/12/15 08:02:17;;;;;;;1.57;1.40;;;3.30;99.90;;;;;;5063306;28;20283;-94
2021/12/15 08:04:49;;;;;;;2.03;1.40;;;3.30;99.90;;;;;;5063292;28;20200;-95
2021/12/15 08:07:20;;;;;;;1.50;1.30;;;3.40;99.90;;;;;;5065037;28;20282;-94
2021/12/15 08:09:51;;;;;;;1.00;0.90;;;3.40;99.90;;;;;;5062069;28;20277;-95
2021/12/15 08:12:26;;;;;;;1.80;1.27;;;3.40;99.90;;;;;;5062669;28;20209;-95
2021/12/15 08:14:57;;;;;;;1.77;1.20;;;3.40;99.90;;;;;;5062864;28;20561;-94
2021/12/15 08:17:29;;;;;;;1.20;1.10;;;3.40;99.90;;;;;;5062396;28;20224;-95
2021/12/15 08:20:01;;;;;;;1.50;1.27;;;3.40;99.90;;;;;;5065397;28;20212;-94
2021/12/15 08:22:32;;;;;;;1.60;1.30;;;3.40;99.90;;;;;;5064831;28;20220;-94
2021/12/15 08:25:04;;;;;;;1.43;1.30;;;3.40;99.90;;;;;;5066327;28;20235;-95
2021/12/15 08:27:35;;;;;;;1.67;1.20;;;3.40;99.90;;;;;;5071220;28;20232;-91
2021/12/15 08:30:11;;;;;;;1.50;1.10;;;3.30;99.90;;;;;;5077824;28;20188;-94
2021/12/15 08:32:44;;;;;;;2.57;1.60;;;3.30;99.90;;;;;;5058575;28;20212;-94
2021/12/15 08:35:16;;;;;;;2.40;1.40;;;3.40;99.90;;;;;;5045113;28;20328;-94
2021/12/15 08:37:47;;;;;;;1.17;0.90;;;3.50;99.90;;;;;;5042707;28;20228;-94
2021/12/15 08:40:21;;;;;;;2.20;1.00;;;3.60;99.90;;;;;;5040108;28;20258;-95
2021/12/15 08:42:57;;;;;;;1.80;0.80;;;3.60;99.90;;;;;;5040800;28;20267;-94
2021/12/15 08:45:30;;;;;;;1.47;0.90;;;3.70;99.90;;;;;;5041085;28;20243;-94
2021/12/15 08:48:07;;;;;;;2.37;0.83;;;3.60;99.90;;;;;;5041253;28;20265;-94
2021/12/15 08:50:40;;;;;;;1.40;1.00;;;3.60;99.90;;;;;;5040622;28;20250;-94
2021/12/15 08:53:12;;;;;;;2.30;0.87;;;3.60;99.90;;;;;;5041158;28;20209;-93
2021/12/15 08:55:46;;;;;;;2.20;0.90;;;3.60;99.90;;;;;;5040382;28;20300;-93
2021/12/15 08:58:18;;;;;;;1.00;0.80;;;3.60;99.90;;;;;;5039929;28;20247;-94
2021/12/15 09:00:52;;;;;;;0.93;0.60;;;3.50;99.90;;;;;;5040848;28;20255;-95
2021/12/15 09:03:26;;;;;;;1.53;0.70;;;3.40;99.90;;;;;;5040674;28;20349;-94
2021/12/15 09:06:00;;;;;;;1.30;0.70;;;3.40;99.90;;;;;;5059140;28;20303;-94
2021/12/15 09:08:32;;;;;;;0.97;0.87;;;3.30;99.90;;;;;;5060387;28;20216;-94
2021/12/15 09:11:07;;;;;;;2.03;0.80;;;3.30;99.90;;;;;;5060711;28;20211;-94
2021/12/15 09:13:40;;;;;;;1.70;0.90;;;3.30;99.90;;;;;;5060996;28;20208;-94
2021/12/15 09:16:13;;;;;;;1.57;1.00;;;3.20;99.90;;;;;;5060963;28;20212;-95
2021/12/15 09:18:48;;;;;;;1.17;0.83;;;3.20;99.90;;;;;;5067397;28;20231;-94
2021/12/15 09:21:21;;;;;;;1.27;0.90;;;3.30;99.90;;;;;;5077669;28;20193;-92
2021/12/15 09:23:52;;;;;;;1.13;0.93;;;3.30;99.90;;;;;;5076483;28;20193;-93
2021/12/15 09:26:25;;;;;;;1.20;1.00;;;3.30;99.90;;;;;;5073598;28;20224;-95
2021/12/15 09:28:56;;;;;;;1.27;0.70;;;3.30;99.90;;;;;;5073119;28;20200;-94
2021/12/15 09:31:28;;;;;;;2.97;1.07;;;3.30;99.90;;;;;;5063935;28;20234;-95
2021/12/15 09:34:04;;;;;;;1.00;0.90;;;3.30;99.90;;;;;;5066242;28;20212;-96
2021/12/15 09:36:36;;;;;;;1.13;0.90;;;3.30;99.90;;;;;;5075275;28;20259;-94
2021/12/15 09:39:11;;;;;;;1.40;0.80;;;3.30;99.90;;;;;;5073063;28;20232;-94
2021/12/15 09:41:42;;;;;;;1.63;0.93;;;3.30;99.90;;;;;;5075268;28;20199;-92
2021/12/15 09:44:17;;;;;;;1.37;1.00;;;3.30;99.90;;;;;;5071003;28;20200;-94
2021/12/15 10:04:09;;;;;;;0.63;0.60;;;3.30;99.90;;;;;;5058760;28;20602;-95
2021/12/15 10:06:54;;;;;;;1.00;0.60;;;3.30;99.90;;;;;;5058572;28;20268;-94
2021/12/15 10:18:06;;;;;;;0.57;0.57;;;3.20;99.90;;;;;;5034504;28;20215;-94
2021/12/15 10:20:39;;;;;;;0.80;0.67;;;3.30;99.90;;;;;;5058656;28;20258;-93
2021/12/15 10:23:15;;;;;;;1.57;0.60;;;3.20;99.90;;;;;;5041448;28;20745;-94
2021/12/15 10:25:52;;;;;;;0.60;0.60;;;3.20;99.90;;;;;;5059519;28;20212;-94
2021/12/15 10:28:26;;;;;;;0.93;0.53;;;3.20;99.90;;;;;;5058742;28;20231;-93
2021/12/15 10:31:03;;;;;;;1.07;0.70;;;3.20;99.90;;;;;;5058540;28;20235;-94
2021/12/15 10:33:37;;;;;;;0.90;0.57;;;3.20;99.90;;;;;;5058009;28;20647;-96
2021/12/15 10:36:10;;;;;;;0.60;0.60;;;3.20;99.90;;;;;;5037614;28;20236;-95
2021/12/15 10:38:45;;;;;;;1.17;0.60;;;3.20;99.90;;;;;;5037956;28;20205;-95
2021/12/15 10:41:19;;;;;;;0.87;0.80;;;3.20;99.90;;;;;;5038043;28;20208;-94
2021/12/15 10:43:52;;;;;;;2.10;0.73;;;3.20;99.90;;;;;;5037400;28;20764;-94
2021/12/15 10:46:26;;;;;;;1.30;0.70;;;3.20;99.90;;;;;;5037865;28;20215;-93
2021/12/15 10:48:59;;;;;;;1.00;0.70;;;3.20;99.90;;;;;;5038004;28;20219;-93
2021/12/15 10:51:38;;;;;;;0.70;0.63;;;3.20;99.90;;;;;;5038162;28;20236;-95
2021/12/15 10:54:15;;;;;;;1.13;0.63;;;3.20;99.90;;;;;;5047500;28;20214;-95
2021/12/15 10:56:52;;;;;;;0.70;0.63;;;3.20;99.90;;;;;;5057016;28;20575;-95
2021/12/15 10:59:26;;;;;;;3.47;0.83;;;3.10;99.90;;;;;;5057782;28;20271;-93
2021/12/15 11:02:04;;;;;;;0.53;0.40;;;3.10;99.90;;;;;;5058146;28;20242;-95
2021/12/15 11:04:46;;;;;;;0.50;0.50;;;3.10;99.90;;;;;;5056296;28;20208;-95
2021/12/15 11:07:22;;;;;;;0.73;0.53;;;3.10;99.90;;;;;;5055897;28;20231;-93
2021/12/15 11:09:59;;;;;;;1.03;0.60;;;3.10;99.90;;;;;;5042277;28;20213;-92
2021/12/15 11:12:34;;;;;;;0.80;0.60;;;3.10;99.90;;;;;;5037045;28;20662;-93
2021/12/15 11:15:10;;;;;;;0.67;0.60;;;3.10;99.90;;;;;;5036387;28;20235;-94
2021/12/15 11:17:43;;;;;;;1.03;0.67;;;3.10;99.90;;;;;;5036251;28;20228;-94
2021/12/15 11:20:19;;;;;;;1.30;0.70;;;3.10;99.90;;;;;;5036641;28;20232;-95
2021/12/15 11:22:55;;;;;;;0.50;0.50;;;3.10;99.90;;;;;;5035620;28;20528;-94
2021/12/15 11:25:56;;;;;;;0.50;0.40;;;3.10;99.90;;;;;;5036511;28;20227;-93
2021/12/15 11:28:29;;;;;;;1.30;0.53;;;3.10;99.90;;;;;;5037693;28;20232;-95
2021/12/15 11:31:02;;;;;;;0.77;0.50;;;3.10;99.90;;;;;;5043510;28;20203;-95
2021/12/15 11:33:37;;;;;;;0.70;0.43;;;3.10;99.90;;;;;;5058861;28;20265;-94
2021/12/15 11:36:10;;;;;;;2.00;0.60;;;3.10;99.90;;;;;;5057606;28;20270;-94
2021/12/15 11:38:44;;;;;;;0.93;0.50;;;3.10;99.90;;;;;;5056190;28;20641;-95
2021/12/15 11:41:21;;;;;;;0.90;0.50;;;3.00;99.90;;;;;;5072169;28;20204;-94
2021/12/15 11:43:54;;;;;;;0.70;0.40;;;3.00;99.90;;;;;;5074827;28;20263;-95
2021/12/15 11:46:30;;;;;;;0.40;0.40;;;3.00;99.90;;;;;;5073070;28;20251;-94
2021/12/15 11:49:04;;;;;;;0.70;0.50;;;3.00;99.90;;;;;;5070932;28;20240;-94
2021/12/15 11:51:43;;;;;;;0.50;0.30;;;3.00;99.90;;;;;;5069352;28;20205;-95
2021/12/15 11:54:21;;;;;;;0.53;0.37;;;3.00;99.90;;;;;;5055862;28;20216;-95
2021/12/15 11:56:56;;;;;;;0.67;0.50;;;3.00;99.90;;;;;;5057314;28;20723;-94
2021/12/15 11:59:30;;;;;;;0.37;0.33;;;3.00;99.90;;;;;;5058892;28;20223;-95
2021/12/15 12:02:06;;;;;;;0.40;0.40;;;3.00;99.90;;;;;;5058921;28;20207;-95
2021/12/15 12:04:42;;;;;;;0.80;0.47;;;2.90;99.90;;;;;;5059324;28;20196;-94
2021/12/15 12:07:25;;;;;;;0.60;0.60;;;2.90;99.90;;;;;;5058198;28;20289;-94
2021/12/15 12:09:59;;;;;;;1.00;0.50;;;2.90;99.90;;;;;;5058244;28;20244;-94
2021/12/15 12:12:36;;;;;;;0.80;0.43;;;2.90;99.90;;;;;;5058258;28;20775;-94
2021/12/15 12:15:12;;;;;;;0.40;0.40;;;2.90;99.90;;;;;;5059565;28;20242;-94
2021/12/15 12:17:46;;;;;;;2.67;0.40;;;2.90;99.90;;;;;;5058137;28;20232;-93
2021/12/15 12:20:21;;;;;;;1.90;0.60;;;2.90;99.90;;;;;;5058620;28;20265;-93
2021/12/15 12:22:55;;;;;;;1.70;0.40;;;2.90;99.90;;;;;;5058763;28;20211;-95
2021/12/15 12:25:33;;;;;;;0.53;0.53;;;2.90;99.90;;;;;;5058471;28;20211;-93
2021/12/15 12:28:09;;;;;;;1.17;0.53;;;3.00;99.90;;;;;;5057951;28;20275;-95
2021/12/15 12:30:43;;;;;;;0.50;0.30;;;3.00;99.90;;;;;;5058152;28;20291;-94
2021/12/15 12:33:15;;;;;;;0.20;0.20;;;2.90;99.90;;;;;;5058131;28;20210;-95
2021/12/15 12:35:48;;;;;;;0.40;0.33;;;2.90;99.90;;;;;;5057622;28;20228;-95
2021/12/15 12:38:22;;;;;;;0.60;0.40;;;2.90;99.90;;;;;;5063326;28;20199;-95
2021/12/15 12:40:56;;;;;;;0.30;0.30;;;2.90;99.90;;;;;;5077602;28;20286;-95
2021/12/15 12:43:31;;;;;;;0.40;0.40;;;2.90;99.90;;;;;;5077817;28;20580;-95
2021/12/15 12:46:09;;;;;;;0.47;0.40;;;2.90;99.90;;;;;;5077860;28;20289;-95
2021/12/15 12:49:16;;;;;;;0.33;0.30;;;2.90;99.90;;;;;;5077885;28;20241;-95
2021/12/15 13:03:18;;;;;;;0.30;0.30;;;2.90;99.90;;;;;;5114324;27;20563;-94
2021/12/15 13:05:53;;;;;;;0.70;0.50;;;2.90;99.90;;;;;;5113735;28;20208;-95
2021/12/15 13:08:36;;;;;;;1.30;0.37;;;2.90;99.90;;;;;;5113861;28;20233;-95
2021/12/15 13:11:18;;;;;;;0.60;0.50;;;2.90;99.90;;;;;;5112822;28;20653;-94
2021/12/15 13:13:56;;;;;;;0.30;0.30;;;2.90;99.90;;;;;;5113289;28;20208;-94
2021/12/15 13:16:37;;;;;;;0.43;0.30;;;2.90;99.90;;;;;;5113093;28;20266;-94
2021/12/15 13:19:19;;;;;;;0.83;0.40;;;2.90;99.90;;;;;;5113644;28;20202;-94
2021/12/15 13:22:00;;;;;;;0.50;0.50;;;2.90;99.90;;;;;;5113645;27;20229;-94
2021/12/15 13:30:35;;;;;;;2.63;0.60;;;2.90;99.90;;;;;;5113454;28;20202;-94
2021/12/15 13:33:12;;;;;;;0.33;0.30;;;2.90;99.90;;;;;;5134137;27;20585;-94
2021/12/15 13:35:49;;;;;;;0.40;0.40;;;2.90;99.90;;;;;;5133795;27;20577;-94
2021/12/15 13:38:24;;;;;;;0.20;0.20;;;2.90;99.90;;;;;;5133528;27;20197;-93
2021/12/15 13:41:19;;;;;;;0.20;0.20;;;2.90;99.90;;;;;;5133770;27;20206;-94
2021/12/15 13:43:56;;;;;;;0.80;0.40;;;2.90;99.90;;;;;;5133470;27;20252;-94
2021/12/15 13:46:43;;;;;;;0.50;0.50;;;3.00;99.90;;;;;;5133258;27;20206;-94
2021/12/15 13:49:31;;;;;;;0.50;0.30;;;2.90;99.90;;;;;;5133401;27;20533;-95
2021/12/15 13:52:34;;;;;;;0.27;0.27;;;3.00;99.90;;;;;;5134202;27;20229;-95
2021/12/15 13:55:24;;;;;;;0.40;0.40;;;3.00;99.90;;;;;;5137903;27;20213;-94
2021/12/15 13:58:16;;;;;;;0.23;0.23;;;3.00;99.90;;;;;;5153447;27;20190;-94
2021/12/15 14:00:56;;;;;;;0.47;0.40;;;3.00;99.90;;;;;;5153819;27;20190;-93
2021/12/15 14:03:44;;;;;;;0.40;0.37;;;3.00;99.90;;;;;;5151296;27;20204;-95
2021/12/15 14:06:27;;;;;;;0.67;0.60;;;3.10;99.90;;;;;;5149200;27;20185;-95
2021/12/15 14:09:08;;;;;;;0.30;0.30;;;3.10;99.90;;;;;;5138574;27;20293;-94
2021/12/15 14:11:45;;;;;;;0.43;0.40;;;3.00;99.90;;;;;;5132694;27;20233;-95
2021/12/15 14:14:26;;;;;;;0.20;0.20;;;3.10;99.90;;;;;;5121664;27;20273;-95
2021/12/15 14:16:59;;;;;;;0.30;0.30;;;3.10;99.90;;;;;;5119367;28;20283;-95
2021/12/15 14:19:36;;;;;;;0.30;0.30;;;3.10;99.90;;;;;;5120633;28;20202;-95
2021/12/15 14:22:09;;;;;;;0.87;0.47;;;3.20;99.90;;;;;;5120431;28;20200;-93
2021/12/15 14:24:44;;;;;;;1.30;0.50;;;3.20;99.90;;;;;;5119573;27;20251;-93
2021/12/15 14:27:15;;;;;;;0.20;0.20;;;3.20;99.90;;;;;;5118463;28;20245;-94
2021/12/15 14:29:46;;;;;;;0.30;0.30;;;3.20;99.90;;;;;;5118716;28;20665;-94
2021/12/15 14:32:17;;;;;;;0.30;0.30;;;3.20;99.90;;;;;;5102588;28;20347;-95
2021/12/15 14:34:48;;;;;;;0.27;0.20;;;3.20;99.90;;;;;;5119320;28;20285;-94
2021/12/15 14:37:21;;;;;;;0.40;0.40;;;3.20;99.90;;;;;;5118768;28;20233;-94
2021/12/15 14:39:55;;;;;;;0.33;0.27;;;3.30;99.90;;;;;;5118853;28;20293;-93
2021/12/15 14:42:29;;;;;;;0.63;0.40;;;3.30;99.90;;;;;;5119351;28;20244;-94
2021/12/15 14:45:01;;;;;;;0.67;0.40;;;3.30;99.90;;;;;;5112973;27;20618;-94
2021/12/15 14:47:35;;;;;;;0.40;0.40;;;3.30;99.90;;;;;;5103126;28;20206;-96
2021/12/15 14:50:11;;;;;;;0.30;0.30;;;3.30;99.90;;;;;;5101315;28;20280;-95
2021/12/15 14:52:45;;;;;;;0.40;0.40;;;3.30;99.90;;;;;;5100554;28;20226;-94
2021/12/15 14:55:28;;;;;;;1.60;0.40;;;3.40;99.90;;;;;;5098725;28;20209;-95